Time;durP1;ratioP1;P1;durP2;ratioP2;P2;SDS_P1;SDS_P2;PMS_P1;PMS_P2;Temp;Humidity;BMP_temperature;BMP_pressure;BME280_temperature;BME280_humidity;BME280_pressure;Samples;Min_cycle;Max_cycle;Signal;HPM_P1;HPM_P2
2023/01/18 00:00:40;;;;;;;25.10;11.23;;;-1.80;99.90;;;;;;5044797;28;20050;-78
2023/01/18 00:03:12;;;;;;;21.30;10.10;;;-1.80;99.90;;;;;;5017223;28;20045;-78
2023/01/18 00:05:40;;;;;;;23.60;11.43;;;-1.70;99.90;;;;;;5033535;28;20046;-81
2023/01/18 00:08:15;;;;;;;21.33;10.10;;;-1.80;99.90;;;;;;5017564;28;20483;-78
2023/01/18 00:10:43;;;;;;;24.58;9.75;;;-1.70;99.90;;;;;;5016539;28;20041;-77
2023/01/18 00:13:11;;;;;;;20.42;9.85;;;-1.70;99.90;;;;;;5034805;28;20045;-80
2023/01/18 00:15:38;;;;;;;23.20;9.75;;;-1.70;99.90;;;;;;5034581;28;20372;-77
2023/01/18 00:18:06;;;;;;;20.75;9.20;;;-1.60;99.90;;;;;;5033630;28;20041;-80
2023/01/18 00:20:33;;;;;;;22.13;10.07;;;-1.60;99.90;;;;;;5016949;28;20061;-80
2023/01/18 00:23:01;;;;;;;21.17;9.45;;;-1.60;99.90;;;;;;5017113;28;20048;-81
2023/01/18 00:25:29;;;;;;;17.92;9.02;;;-1.60;99.90;;;;;;5016155;28;20037;-79
2023/01/18 00:27:57;;;;;;;24.73;9.60;;;-1.60;99.90;;;;;;5017368;28;20476;-79
2023/01/18 00:30:27;;;;;;;22.17;8.60;;;-0.10;99.90;;;;;;5017031;28;20041;-78
2023/01/18 00:32:56;;;;;;;20.92;8.90;;;-1.60;99.90;;;;;;5015925;28;20060;-77
2023/01/18 00:35:25;;;;;;;19.75;7.72;;;-1.50;99.90;;;;;;5017380;28;20049;-80
2023/01/18 00:37:53;;;;;;;19.10;8.70;;;-1.60;99.90;;;;;;5016546;28;20515;-82
2023/01/18 00:40:21;;;;;;;21.45;8.27;;;-1.60;99.90;;;;;;5017157;28;20057;-78
2023/01/18 00:45:34;;;;;;;17.63;7.47;;;-1.50;99.90;;;;;;5033075;28;20060;-77
2023/01/18 00:48:02;;;;;;;18.35;8.23;;;-1.60;99.90;;;;;;5020577;28;20041;-80
2023/01/18 00:50:29;;;;;;;14.07;7.53;;;-1.50;99.90;;;;;;5037818;28;20045;-79
2023/01/18 00:52:58;;;;;;;14.85;8.07;;;-1.50;99.90;;;;;;5003435;28;20045;-81
2023/01/18 00:55:27;;;;;;;15.27;6.72;;;-1.50;99.90;;;;;;5020631;28;20041;-80
2023/01/18 00:57:54;;;;;;;;;;;-1.50;99.90;;;;;;5037052;28;20044;-80
2023/01/18 01:00:23;;;;;;;22.60;7.05;;;-1.50;99.90;;;;;;5031107;28;19932;-77
2023/01/18 01:02:50;;;;;;;16.27;6.75;;;-1.60;99.90;;;;;;5057555;28;20041;-81
2023/01/18 01:08:07;;;;;;;18.38;6.97;;;-1.60;99.90;;;;;;5057743;28;20448;-78
2023/01/18 01:10:35;;;;;;;16.67;6.93;;;-1.60;99.90;;;;;;5057552;28;20053;-79
2023/01/18 01:26:53;;;;;;;13.90;6.72;;;-1.50;99.90;;;;;;5057260;28;20407;-81
2023/01/18 01:29:21;;;;;;;18.02;6.90;;;-1.50;99.90;;;;;;5056190;28;20483;-81
2023/01/18 01:31:48;;;;;;;13.38;5.82;;;-1.50;99.90;;;;;;5056092;28;20045;-77
2023/01/18 01:34:16;;;;;;;17.25;6.85;;;-1.50;99.90;;;;;;5056149;28;20380;-81
2023/01/18 01:36:43;;;;;;;13.93;5.65;;;-1.40;99.90;;;;;;5057022;28;20049;-78
2023/01/18 01:39:11;;;;;;;15.57;6.13;;;-1.50;99.90;;;;;;5056249;28;20375;-79
2023/01/18 01:41:38;;;;;;;13.77;5.45;;;-1.40;99.90;;;;;;5056052;28;20060;-79
2023/01/18 01:44:23;;;;;;;16.02;5.75;;;-1.40;99.90;;;;;;5055656;28;20045;-77
2023/01/18 01:46:53;;;;;;;19.90;6.22;;;-1.40;99.90;;;;;;5057020;28;20052;-78
2023/01/18 01:49:30;;;;;;;15.70;5.95;;;-1.40;99.90;;;;;;5056660;28;20049;-80
2023/01/18 01:52:06;;;;;;;;;;;-1.40;99.90;;;;;;5055988;28;20353;-80
2023/01/18 01:54:44;;;;;;;11.95;5.25;;;-1.50;99.90;;;;;;5056234;28;20350;-82
2023/01/18 01:57:23;;;;;;;12.80;5.30;;;-1.50;99.90;;;;;;5055998;28;20044;-81
2023/01/18 01:59:59;;;;;;;15.93;5.47;;;-1.50;99.90;;;;;;5052820;28;20065;-77
2023/01/18 02:02:29;;;;;;;10.75;5.57;;;-1.50;99.90;;;;;;5036401;28;20045;-77
2023/01/18 02:04:59;;;;;;;15.82;5.60;;;-1.50;99.90;;;;;;5018056;28;20050;-78
2023/01/18 02:07:30;;;;;;;15.65;5.80;;;-1.50;99.90;;;;;;5036892;28;20372;-80
2023/01/18 02:09:59;;;;;;;12.13;5.63;;;-1.50;99.90;;;;;;5036380;28;20064;-82
2023/01/18 02:12:28;;;;;;;12.45;5.50;;;-1.50;99.90;;;;;;5018214;28;20045;-81
2023/01/18 02:14:57;;;;;;;13.57;5.68;;;-1.50;99.90;;;;;;5002933;28;20053;-77
2023/01/18 02:17:53;;;;;;;14.50;5.68;;;-3.10;99.90;;;;;;5018022;28;20045;-80
2023/01/18 02:20:54;;;;;;;15.13;5.75;;;-1.50;99.90;;;;;;5036603;28;20380;-82
2023/01/18 02:23:31;;;;;;;14.02;5.93;;;-1.40;99.90;;;;;;5036170;28;20056;-79
2023/01/18 02:26:29;;;;;;;15.25;4.90;;;-1.50;99.90;;;;;;5035106;28;20052;-79
2023/01/18 02:29:12;;;;;;;12.63;4.70;;;-1.40;99.90;;;;;;5002884;28;20045;-79
2023/01/18 02:32:12;;;;;;;12.05;4.85;;;-1.40;99.90;;;;;;5034893;28;20048;-80
2023/01/18 02:35:19;;;;;;;14.43;5.10;;;-1.40;99.90;;;;;;5035858;28;20341;-81
2023/01/18 02:38:10;;;;;;;10.55;4.40;;;-1.40;99.90;;;;;;4985534;28;20372;-77
2023/01/18 02:40:56;;;;;;;14.40;5.50;;;-1.40;99.90;;;;;;5035746;28;20046;-82
2023/01/18 02:49:06;;;;;;;12.50;4.78;;;-1.40;99.90;;;;;;5035635;28;19928;-78
2023/01/18 02:51:34;;;;;;;20.40;5.45;;;-1.40;99.90;;;;;;5017512;28;20377;-80
2023/01/18 02:54:06;;;;;;;18.42;5.15;;;-1.40;99.90;;;;;;5035735;28;20050;-79
2023/01/18 02:56:41;;;;;;;13.10;4.63;;;-1.50;99.90;;;;;;5018450;28;20053;-79
2023/01/18 02:59:14;;;;;;;16.05;5.10;;;-1.40;99.90;;;;;;5034451;28;20053;-79
2023/01/18 03:01:53;;;;;;;13.25;4.60;;;-1.50;99.90;;;;;;5034165;28;20056;-81
2023/01/18 03:04:25;;;;;;;14.20;4.40;;;-1.50;99.90;;;;;;5054561;28;20048;-78
2023/01/18 03:07:00;;;;;;;15.93;4.90;;;-1.60;99.90;;;;;;5054662;28;20049;-78
2023/01/18 03:09:28;;;;;;;11.95;4.60;;;-0.30;99.90;;;;;;5054344;28;20375;-78
2023/01/18 03:12:07;;;;;;;10.90;4.78;;;-1.70;99.90;;;;;;5054054;28;20060;-81
2023/01/18 03:15:01;;;;;;;13.68;5.50;;;-1.70;99.90;;;;;;5055190;28;20060;-79
2023/01/18 03:17:36;;;;;;;12.63;4.85;;;-1.70;99.90;;;;;;5053043;28;20456;-77
2023/01/18 03:20:09;;;;;;;11.68;4.88;;;-1.70;99.90;;;;;;5054777;28;20071;-81
2023/01/18 03:25:40;;;;;;;9.63;4.95;;;-1.70;99.90;;;;;;5053018;28;20049;-81
2023/01/18 03:34:20;;;;;;;11.90;4.65;;;-1.80;99.90;;;;;;5054078;28;20060;-80
2023/01/18 03:36:51;;;;;;;11.70;4.38;;;-0.20;99.90;;;;;;5054980;28;20060;-77
2023/01/18 03:39:28;;;;;;;10.95;4.43;;;-1.90;99.90;;;;;;5053032;28;20371;-77
2023/01/18 03:42:01;;;;;;;13.30;4.60;;;0.00;99.90;;;;;;5037689;28;20049;-79
2023/01/18 03:44:36;;;;;;;13.20;4.90;;;-1.90;99.90;;;;;;5053750;28;20044;-79
2023/01/18 03:47:05;;;;;;;10.07;4.28;;;-1.90;99.90;;;;;;5053836;28;20364;-82
2023/01/18 03:49:34;;;;;;;16.00;4.70;;;-2.00;99.90;;;;;;5037671;28;20067;-77
2023/01/18 03:52:23;;;;;;;9.73;4.50;;;-2.10;99.90;;;;;;5053875;28;20391;-79
2023/01/18 03:55:08;;;;;;;13.77;4.30;;;-2.00;99.90;;;;;;5054641;28;20045;-80
2023/01/18 03:58:03;;;;;;;13.07;4.53;;;-2.10;99.90;;;;;;5053435;28;20068;-77
2023/01/18 04:00:30;;;;;;;13.55;4.70;;;-2.10;99.90;;;;;;5046062;28;20076;-78
2023/01/18 04:02:58;;;;;;;11.27;5.05;;;-2.10;99.90;;;;;;5034471;28;20049;-77
2023/01/18 04:05:27;;;;;;;11.98;4.95;;;-2.10;99.90;;;;;;5033473;28;20472;-81
2023/01/18 04:07:54;;;;;;;16.48;4.88;;;-2.10;99.90;;;;;;5034770;28;20052;-79
2023/01/18 04:10:22;;;;;;;15.68;5.47;;;-2.10;99.90;;;;;;5017504;28;20352;-76
2023/01/18 04:12:49;;;;;;;19.60;5.05;;;-2.00;99.90;;;;;;5016281;28;20041;-80
2023/01/18 04:15:18;;;;;;;15.75;5.15;;;-2.00;99.90;;;;;;5034722;28;20041;-80
2023/01/18 04:17:48;;;;;;;21.67;5.55;;;-2.00;99.90;;;;;;5033683;28;20074;-80
2023/01/18 04:20:16;;;;;;;13.35;4.50;;;-2.10;99.90;;;;;;5017025;28;20057;-81
2023/01/18 04:22:43;;;;;;;17.02;4.68;;;-2.00;99.90;;;;;;5019686;28;20377;-81
2023/01/18 04:25:11;;;;;;;15.05;4.93;;;-2.10;99.90;;;;;;5037308;28;20041;-78
2023/01/18 04:27:38;;;;;;;15.65;5.05;;;-2.00;99.90;;;;;;5038566;28;20049;-80
2023/01/18 04:30:07;;;;;;;14.13;4.72;;;-2.00;99.90;;;;;;5021079;28;20472;-79
2023/01/18 04:32:34;;;;;;;13.25;5.18;;;-2.10;99.90;;;;;;5019742;28;20049;-78
2023/01/18 04:35:02;;;;;;;13.65;4.70;;;-2.10;99.90;;;;;;5021397;28;20064;-79
2023/01/18 04:37:32;;;;;;;12.07;4.85;;;-2.00;99.90;;;;;;5037502;28;20057;-78
2023/01/18 04:40:00;;;;;;;8.82;4.45;;;-2.10;99.90;;;;;;5038550;28;20064;-79
2023/01/18 04:42:29;;;;;;;13.52;5.50;;;-1.30;99.90;;;;;;5020942;28;20037;-82
2023/01/18 04:44:57;;;;;;;15.75;5.32;;;-0.90;99.90;;;;;;5036798;28;20381;-79
2023/01/18 04:47:25;;;;;;;;;;;-2.10;99.90;;;;;;5038952;28;20049;-78
2023/01/18 04:49:52;;;;;;;13.55;4.80;;;-2.10;99.90;;;;;;5021268;28;19928;-80
2023/01/18 04:52:20;;;;;;;12.65;4.63;;;-2.10;99.90;;;;;;5036817;28;20052;-78
2023/01/18 04:54:48;;;;;;;12.65;4.80;;;-2.00;99.90;;;;;;5037969;28;20364;-81
2023/01/18 04:57:15;;;;;;;11.15;5.40;;;-2.10;99.90;;;;;;5004761;28;20054;-81
2023/01/18 04:59:44;;;;;;;16.02;5.10;;;-1.50;99.90;;;;;;5036699;28;20049;-82
2023/01/18 05:02:14;;;;;;;14.95;5.20;;;-2.00;99.90;;;;;;5020414;28;20057;-77
2023/01/18 05:04:43;;;;;;;12.10;5.35;;;-2.10;99.90;;;;;;5002734;28;20488;-80
2023/01/18 05:07:11;;;;;;;14.10;4.55;;;-2.00;99.90;;;;;;5020309;28;20048;-81
2023/01/18 05:09:38;;;;;;;;;;;-2.00;99.90;;;;;;5004220;28;20045;-82
2023/01/18 05:12:06;;;;;;;19.92;4.30;;;-2.00;99.90;;;;;;5036453;28;19928;-83
2023/01/18 05:14:33;;;;;;;8.75;4.50;;;-1.80;99.90;;;;;;5037510;28;20056;-81
2023/01/18 05:17:01;;;;;;;21.73;4.85;;;-2.00;99.90;;;;;;5020314;28;20049;-80
2023/01/18 05:19:30;;;;;;;16.17;4.53;;;-2.00;99.90;;;;;;5019152;28;20049;-78
2023/01/18 05:21:57;;;;;;;17.42;4.82;;;-2.00;99.90;;;;;;5019909;28;20050;-80
2023/01/18 05:24:25;;;;;;;15.25;4.90;;;-2.00;99.90;;;;;;5018949;28;20373;-80
2023/01/18 05:26:56;;;;;;;13.55;4.80;;;-2.00;99.90;;;;;;5019927;28;20052;-79
2023/01/18 05:29:26;;;;;;;12.07;4.68;;;-2.00;99.90;;;;;;5037810;28;20041;-78
2023/01/18 05:31:53;;;;;;;14.07;4.40;;;-2.00;99.90;;;;;;5018971;28;20042;-78
2023/01/18 05:34:21;;;;;;;15.32;4.72;;;-2.00;99.90;;;;;;5019696;28;20045;-81
2023/01/18 05:36:49;;;;;;;10.80;4.35;;;-2.00;99.90;;;;;;5037263;28;20050;-77
2023/01/18 05:39:16;;;;;;;11.68;4.40;;;-2.00;99.90;;;;;;5002320;28;20049;-81
2023/01/18 05:41:44;;;;;;;11.48;4.30;;;-2.10;99.90;;;;;;5037455;28;20053;-79
2023/01/18 05:44:11;;;;;;;13.77;4.60;;;-2.10;99.90;;;;;;5018715;28;20045;-79
2023/01/18 05:46:39;;;;;;;10.25;4.25;;;-2.10;99.90;;;;;;5019819;28;20045;-79
2023/01/18 05:49:06;;;;;;;12.80;4.65;;;-2.20;99.90;;;;;;5019482;28;20468;-83
2023/01/18 05:51:34;;;;;;;12.63;4.15;;;-2.20;99.90;;;;;;5018444;28;20049;-80
2023/01/18 05:54:02;;;;;;;14.00;4.63;;;-2.20;99.90;;;;;;5019700;28;20368;-82
2023/01/18 05:56:29;;;;;;;15.95;4.00;;;-2.20;99.90;;;;;;5019410;28;20483;-80
2023/01/18 05:58:57;;;;;;;13.48;4.63;;;-2.20;99.90;;;;;;5002319;28;20076;-83
2023/01/18 06:01:24;;;;;;;14.73;4.85;;;-2.30;99.90;;;;;;5047076;28;20507;-79
2023/01/18 06:03:52;;;;;;;12.75;4.28;;;-2.20;99.90;;;;;;5056589;28;20499;-79
2023/01/18 06:06:19;;;;;;;15.35;4.18;;;-2.20;99.90;;;;;;5037973;28;20045;-77
2023/01/18 06:08:47;;;;;;;11.00;3.75;;;-2.20;99.90;;;;;;5056016;28;20387;-79
2023/01/18 06:11:14;;;;;;;7.93;3.40;;;-2.10;99.90;;;;;;5054323;28;20041;-82
2023/01/18 06:13:42;;;;;;;13.65;4.53;;;-2.30;99.90;;;;;;5055494;28;20048;-82
2023/01/18 06:16:10;;;;;;;10.07;3.60;;;-2.30;99.90;;;;;;5056060;28;20064;-82
2023/01/18 06:18:40;;;;;;;11.90;4.07;;;-2.40;99.90;;;;;;5054292;28;20353;-82
2023/01/18 06:21:09;;;;;;;11.75;4.32;;;-2.30;99.90;;;;;;5038453;28;20052;-79
2023/01/18 06:23:39;;;;;;;11.20;4.03;;;-2.30;99.90;;;;;;5039374;28;20040;-79
2023/01/18 06:26:08;;;;;;;22.58;3.92;;;-2.20;99.90;;;;;;5054180;28;20056;-82
2023/01/18 06:28:35;;;;;;;11.63;3.67;;;-2.10;99.90;;;;;;5038882;28;20060;-78
2023/01/18 06:31:06;;;;;;;13.73;4.32;;;-2.10;99.90;;;;;;5054056;28;20048;-80
2023/01/18 06:33:34;;;;;;;15.40;4.55;;;0.10;99.90;;;;;;5038703;28;20052;-79
2023/01/18 06:36:02;;;;;;;15.40;4.68;;;-2.00;99.90;;;;;;5056064;28;20045;-76
2023/01/18 06:38:30;;;;;;;15.30;4.68;;;-1.50;99.90;;;;;;5037818;28;20468;-83
2023/01/18 06:40:57;;;;;;;13.05;4.00;;;-0.40;99.90;;;;;;5038375;28;20053;-79
2023/01/18 06:43:25;;;;;;;11.32;3.75;;;0.40;99.90;;;;;;5038318;28;20472;-82
2023/01/18 06:45:55;;;;;;;11.80;4.32;;;-1.60;99.90;;;;;;5052924;28;20399;-83
2023/01/18 06:48:25;;;;;;;12.07;4.10;;;-1.50;99.90;;;;;;5056010;28;20049;-82
2023/01/18 06:50:55;;;;;;;15.63;4.05;;;-1.40;99.90;;;;;;5054676;28;20460;-78
2023/01/18 06:53:23;;;;;;;16.00;4.40;;;-1.40;99.90;;;;;;5054916;28;20041;-82
2023/01/18 06:55:52;;;;;;;;;;;-1.40;99.90;;;;;;5055133;28;20053;-78
2023/01/18 06:58:20;;;;;;;9.90;3.28;;;-1.30;99.90;;;;;;5053491;28;19921;-78
2023/01/18 07:00:47;;;;;;;13.93;3.70;;;0.90;99.90;;;;;;5044878;28;20046;-78
2023/01/18 07:03:15;;;;;;;14.70;3.47;;;-0.60;99.90;;;;;;5018905;28;20050;-82
2023/01/18 07:05:45;;;;;;;10.43;3.53;;;0.20;99.90;;;;;;5000783;28;20492;-79
2023/01/18 07:08:13;;;;;;;15.57;4.50;;;0.60;99.90;;;;;;5035632;28;20052;-79
2023/01/18 07:10:41;;;;;;;9.20;3.97;;;-0.20;99.90;;;;;;5017173;28;20042;-82
2023/01/18 07:13:08;;;;;;;19.08;4.80;;;-1.30;99.90;;;;;;5018077;28;20476;-79
2023/01/18 07:15:35;;;;;;;15.20;3.90;;;-1.30;99.90;;;;;;5035846;28;20049;-80
2023/01/18 07:18:04;;;;;;;16.27;4.80;;;-1.30;99.90;;;;;;5017429;28;20048;-80
2023/01/18 07:20:31;;;;;;;17.17;4.80;;;-0.70;99.90;;;;;;5002057;28;20053;-82
2023/01/18 07:23:03;;;;;;;17.02;4.82;;;-1.00;99.90;;;;;;5018042;28;20045;-81
2023/01/18 07:25:34;;;;;;;12.77;4.18;;;-1.10;99.90;;;;;;5016472;28;20045;-80
2023/01/18 07:28:04;;;;;;;22.58;4.38;;;-1.20;99.90;;;;;;5035624;28;20050;-82
2023/01/18 07:30:32;;;;;;;10.57;4.50;;;0.30;99.90;;;;;;5035339;28;20068;-84
2023/01/18 07:32:59;;;;;;;12.57;5.07;;;-0.40;99.90;;;;;;5033841;28;20050;-85
2023/01/18 07:35:27;;;;;;;14.15;5.00;;;1.10;99.90;;;;;;5017841;28;20053;-84
2023/01/18 07:37:55;;;;;;;11.30;4.10;;;1.10;99.90;;;;;;5016569;28;20053;-82
2023/01/18 07:40:25;;;;;;;20.75;4.68;;;1.40;99.90;;;;;;5002180;28;20057;-81
2023/01/18 07:42:57;;;;;;;19.25;5.18;;;0.80;99.90;;;;;;5018284;28;20481;-79
2023/01/18 07:45:25;;;;;;;12.00;4.60;;;1.40;99.90;;;;;;5016730;28;20046;-81
2023/01/18 07:47:53;;;;;;;18.30;4.75;;;-0.80;99.90;;;;;;5002097;28;20049;-82
2023/01/18 07:50:32;;;;;;;20.95;4.40;;;1.40;99.90;;;;;;5034869;28;20060;-79
2023/01/18 07:53:10;;;;;;;18.17;4.70;;;0.30;99.90;;;;;;5019151;28;20046;-82
2023/01/18 07:55:42;;;;;;;13.02;4.88;;;1.00;99.90;;;;;;5017846;28;20068;-82
2023/01/18 07:58:10;;;;;;;11.20;4.53;;;0.40;99.90;;;;;;5034009;28;20453;-82
2023/01/18 08:00:37;;;;;;;;;;;0.40;99.90;;;;;;5054559;28;20048;-79
2023/01/18 08:03:11;;;;;;;16.60;4.65;;;-0.90;99.90;;;;;;5094257;28;19927;-81
2023/01/18 08:05:42;;;;;;;10.50;4.40;;;1.60;99.90;;;;;;5076668;28;20048;-82
2023/01/18 08:08:17;;;;;;;19.88;5.00;;;-0.80;99.90;;;;;;5078247;28;20051;-79
2023/01/18 08:10:44;;;;;;;10.55;4.38;;;1.70;99.90;;;;;;5093768;28;20044;-78
2023/01/18 08:13:15;;;;;;;16.73;4.47;;;-0.80;99.90;;;;;;5067599;28;20040;-82
2023/01/18 08:15:42;;;;;;;12.20;4.45;;;0.30;99.90;;;;;;5064199;28;20040;-83
2023/01/18 08:18:11;;;;;;;15.45;4.78;;;-1.50;99.90;;;;;;5069008;28;20461;-79
2023/01/18 08:21:03;;;;;;;17.38;5.90;;;1.70;99.90;;;;;;5074340;28;20212;-82
2023/01/18 08:23:38;;;;;;;16.08;4.80;;;-0.40;99.90;;;;;;5075070;28;20060;-85
2023/01/18 08:26:35;;;;;;;18.42;5.07;;;-2.50;99.90;;;;;;5072152;28;20048;-82
2023/01/18 08:29:05;;;;;;;13.65;6.72;;;-0.40;99.90;;;;;;5070937;28;20048;-81
2023/01/18 08:31:34;;;;;;;11.55;4.72;;;1.20;99.90;;;;;;5073771;28;20497;-80
2023/01/18 08:34:04;;;;;;;16.50;6.68;;;-0.30;99.90;;;;;;5073262;28;20048;-80
2023/01/18 08:36:33;;;;;;;22.02;6.13;;;-1.70;99.90;;;;;;5073724;28;20052;-81
2023/01/18 08:39:06;;;;;;;20.75;5.78;;;-1.00;99.90;;;;;;5039743;28;20049;-77
2023/01/18 08:41:41;;;;;;;19.10;5.75;;;1.30;99.90;;;;;;5074108;28;20060;-79
2023/01/18 08:44:12;;;;;;;23.88;5.53;;;-0.60;99.90;;;;;;5072786;28;20375;-81
2023/01/18 08:46:43;;;;;;;23.50;8.20;;;-1.20;99.90;;;;;;5072445;28;20052;-79
2023/01/18 08:49:11;;;;;;;16.02;5.40;;;1.80;99.90;;;;;;5073616;28;20127;-73
2023/01/18 08:51:38;;;;;;;16.50;5.45;;;-0.90;99.90;;;;;;5064289;28;20055;-78
2023/01/18 08:54:06;;;;;;;12.05;5.15;;;-0.70;99.90;;;;;;5063761;28;20053;-77
2023/01/18 08:56:34;;;;;;;15.00;5.38;;;0.50;99.90;;;;;;5074413;28;20052;-76
2023/01/18 08:59:01;;;;;;;;;;;-0.80;99.90;;;;;;5055298;28;20049;-78
2023/01/18 09:01:29;;;;;;;11.82;4.68;;;-0.70;99.90;;;;;;5075734;28;20358;-77
2023/01/18 09:03:57;;;;;;;19.90;5.57;;;-0.70;99.90;;;;;;5093658;28;20044;-75
2023/01/18 09:06:30;;;;;;;19.15;5.25;;;0.50;99.90;;;;;;5093226;28;20047;-75
2023/01/18 09:08:59;;;;;;;9.95;4.45;;;-0.60;99.90;;;;;;5097056;28;20036;-76
2023/01/18 09:11:26;;;;;;;18.55;5.30;;;-0.60;99.90;;;;;;5097245;28;20048;-76
2023/01/18 09:13:54;;;;;;;18.77;5.50;;;-0.50;99.90;;;;;;5097428;28;20063;-76
2023/01/18 09:16:29;;;;;;;21.73;5.68;;;-0.50;99.90;;;;;;5098119;28;20044;-75
2023/01/18 09:18:57;;;;;;;16.92;5.90;;;-0.50;99.90;;;;;;5096567;28;20048;-75
2023/01/18 09:21:26;;;;;;;14.52;5.45;;;-0.60;99.90;;;;;;5096691;28;20052;-75
2023/01/18 09:23:54;;;;;;;18.25;5.40;;;-0.50;99.90;;;;;;5096719;28;20048;-76
2023/01/18 09:26:22;;;;;;;14.68;5.57;;;0.50;99.90;;;;;;5096407;28;20040;-75
2023/01/18 09:28:51;;;;;;;15.05;5.00;;;-0.50;99.90;;;;;;5096912;28;20363;-75
2023/01/18 09:31:21;;;;;;;18.15;5.03;;;-0.40;99.90;;;;;;5095952;28;20048;-75
2023/01/18 09:33:49;;;;;;;18.23;5.25;;;-0.40;99.90;;;;;;5096781;28;20059;-75
2023/01/18 09:36:25;;;;;;;11.50;4.47;;;-0.40;99.90;;;;;;5096515;28;20063;-75
2023/01/18 09:38:54;;;;;;;9.93;4.32;;;0.30;99.90;;;;;;5096529;28;20048;-75
2023/01/18 09:41:29;;;;;;;18.67;5.32;;;-0.20;99.90;;;;;;5096436;28;20162;-76
2023/01/18 09:44:15;;;;;;;12.80;4.57;;;-0.20;99.90;;;;;;5096440;28;20067;-76
2023/01/18 09:46:44;;;;;;;15.80;4.32;;;-0.60;99.90;;;;;;5079587;28;20051;-76
2023/01/18 09:49:21;;;;;;;16.58;5.15;;;0.00;99.90;;;;;;5096023;28;20066;-76
2023/01/18 09:51:50;;;;;;;13.10;4.65;;;0.10;99.90;;;;;;5095384;28;20048;-76
2023/01/18 09:54:39;;;;;;;14.35;4.50;;;2.50;99.90;;;;;;5096367;28;20040;-76
2023/01/18 09:57:36;;;;;;;13.90;4.68;;;0.20;99.90;;;;;;5097173;28;20052;-76
2023/01/18 10:00:26;;;;;;;9.23;4.15;;;0.30;99.90;;;;;;5091688;28;20059;-76
2023/01/18 10:03:01;;;;;;;14.07;4.53;;;0.40;99.90;;;;;;5076870;28;20047;-75
2023/01/18 10:05:33;;;;;;;10.95;3.67;;;0.40;99.90;;;;;;5075277;28;20285;-73
2023/01/18 10:08:06;;;;;;;12.65;4.30;;;0.50;99.90;;;;;;5025867;28;20365;-75
2023/01/18 10:10:42;;;;;;;11.98;4.03;;;0.50;99.90;;;;;;5058869;28;20051;-75
2023/01/18 10:13:29;;;;;;;11.52;4.47;;;1.30;99.90;;;;;;5058428;28;20041;-74
2023/01/18 10:15:56;;;;;;;12.35;4.38;;;0.60;99.90;;;;;;5058821;28;20053;-76
2023/01/18 10:18:24;;;;;;;12.07;3.80;;;0.60;99.90;;;;;;5075323;28;20055;-74
2023/01/18 10:20:56;;;;;;;10.55;4.20;;;0.70;99.90;;;;;;5058997;28;20048;-77
2023/01/18 10:23:27;;;;;;;16.25;4.97;;;1.60;99.90;;;;;;5076603;28;20051;-73
2023/01/18 10:26:25;;;;;;;15.18;3.83;;;1.40;99.90;;;;;;5075070;28;20044;-77
2023/01/18 10:29:24;;;;;;;11.40;4.20;;;0.80;99.90;;;;;;5057558;28;20053;-76
2023/01/18 10:32:00;;;;;;;10.13;4.30;;;0.80;99.90;;;;;;5057379;28;20056;-76
2023/01/18 10:34:33;;;;;;;12.68;4.68;;;0.90;99.90;;;;;;5058082;28;20045;-77
2023/01/18 10:37:21;;;;;;;12.10;4.57;;;0.90;99.90;;;;;;5058368;28;20048;-76
2023/01/18 10:39:50;;;;;;;;;;;1.00;99.90;;;;;;5076563;28;20053;-77
2023/01/18 10:42:22;;;;;;;7.82;3.60;;;1.10;99.90;;;;;;5041777;28;19920;-74
2023/01/18 10:44:49;;;;;;;18.92;4.38;;;1.10;99.90;;;;;;5074842;28;20053;-74
2023/01/18 10:47:18;;;;;;;11.60;4.57;;;1.20;99.90;;;;;;5075825;28;20040;-76
2023/01/18 10:49:49;;;;;;;19.00;4.65;;;1.20;99.90;;;;;;5075743;28;20047;-75
2023/01/18 10:52:25;;;;;;;13.02;4.90;;;1.20;99.90;;;;;;5074427;28;20043;-77
2023/01/18 10:54:56;;;;;;;10.50;4.50;;;1.20;99.90;;;;;;5076050;28;20045;-77
2023/01/18 10:57:54;;;;;;;14.77;4.57;;;1.30;99.90;;;;;;5074323;28;20387;-74
2023/01/18 11:00:35;;;;;;;14.95;4.30;;;1.30;99.90;;;;;;5072339;28;20489;-74
2023/01/18 11:03:04;;;;;;;15.25;4.95;;;1.30;99.90;;;;;;5095629;28;20501;-76
2023/01/18 11:05:44;;;;;;;11.82;5.25;;;1.40;99.90;;;;;;5094450;28;20378;-74
2023/01/18 11:08:30;;;;;;;12.38;4.97;;;1.40;99.90;;;;;;5094651;28;20048;-76
2023/01/18 11:11:01;;;;;;;9.63;4.40;;;1.40;99.90;;;;;;5094814;28;20040;-77
2023/01/18 11:13:32;;;;;;;12.80;5.05;;;1.40;99.90;;;;;;5094984;28;20044;-75
2023/01/18 11:16:12;;;;;;;17.27;5.25;;;1.50;99.90;;;;;;5095745;28;20371;-75
2023/01/18 11:19:01;;;;;;;9.30;4.75;;;1.40;99.90;;;;;;5093421;28;20047;-77
2023/01/18 11:21:39;;;;;;;11.25;5.80;;;1.50;99.90;;;;;;5094471;28;20059;-74
2023/01/18 11:24:23;;;;;;;16.98;5.82;;;1.60;99.90;;;;;;5094187;28;20036;-78
2023/01/18 11:26:55;;;;;;;15.93;6.90;;;1.50;99.90;;;;;;5095501;28;20040;-77
2023/01/18 11:29:27;;;;;;;15.38;6.53;;;1.50;99.90;;;;;;5095111;28;20067;-73
2023/01/18 11:31:59;;;;;;;14.95;5.95;;;1.50;99.90;;;;;;5093925;28;20462;-77
2023/01/18 11:34:31;;;;;;;13.02;6.28;;;1.60;99.90;;;;;;5094618;28;20040;-74
2023/01/18 11:37:00;;;;;;;18.52;5.28;;;1.50;99.90;;;;;;5095140;28;20378;-75
2023/01/18 11:39:29;;;;;;;18.92;6.00;;;1.50;99.90;;;;;;5093908;28;20048;-74
2023/01/18 11:42:18;;;;;;;16.67;6.05;;;1.60;99.90;;;;;;5094055;28;20059;-76
2023/01/18 11:45:10;;;;;;;14.70;5.18;;;1.60;99.90;;;;;;5094289;28;20048;-76
2023/01/18 11:47:50;;;;;;;12.85;5.65;;;1.60;99.90;;;;;;5093950;28;20044;-74
2023/01/18 11:50:38;;;;;;;12.73;5.50;;;1.70;99.90;;;;;;5094909;28;20398;-75
2023/01/18 11:53:12;;;;;;;18.83;6.32;;;1.70;99.90;;;;;;5093964;28;20390;-77
2023/01/18 11:55:54;;;;;;;18.20;6.18;;;1.80;99.90;;;;;;5095290;28;20040;-77
2023/01/18 11:58:28;;;;;;;20.45;5.95;;;1.80;99.90;;;;;;5093656;28;20379;-75
2023/01/18 12:01:23;;;;;;;15.88;5.75;;;2.80;99.90;;;;;;5093975;28;20340;-76
2023/01/18 12:04:10;;;;;;;15.30;6.00;;;1.90;99.90;;;;;;5095235;28;20059;-76
2023/01/18 12:07:04;;;;;;;14.73;5.88;;;1.90;99.90;;;;;;5077067;28;20044;-75
2023/01/18 12:09:51;;;;;;;13.73;4.88;;;2.00;99.90;;;;;;5044347;28;20052;-75
2023/01/18 12:12:45;;;;;;;13.30;5.55;;;2.00;99.90;;;;;;5076216;28;20044;-77
2023/01/18 12:15:19;;;;;;;15.48;5.65;;;2.10;99.90;;;;;;5094792;28;20463;-75
2023/01/18 12:17:51;;;;;;;14.40;5.90;;;2.50;99.90;;;;;;5092186;28;20051;-74
2023/01/18 12:21:02;;;;;;;13.70;5.05;;;2.10;99.90;;;;;;5093528;28;20048;-78
2023/01/18 12:23:54;;;;;;;14.35;5.20;;;2.20;99.90;;;;;;5073228;28;20398;-76
2023/01/18 12:26:35;;;;;;;12.45;5.53;;;2.20;99.90;;;;;;5072426;28;20053;-75
2023/01/18 12:29:32;;;;;;;13.40;5.13;;;2.40;99.90;;;;;;5073873;28;20044;-77
2023/01/18 12:32:03;;;;;;;14.98;5.28;;;2.30;99.90;;;;;;5073282;28;20048;-75
2023/01/18 12:34:57;;;;;;;13.85;5.57;;;2.30;99.90;;;;;;5055847;28;20048;-75
2023/01/18 12:37:44;;;;;;;17.10;5.57;;;2.30;99.90;;;;;;5052178;28;20071;-77
2023/01/18 12:40:36;;;;;;;10.00;5.07;;;2.40;99.90;;;;;;5053380;28;20049;-76
2023/01/18 12:43:45;;;;;;;7.93;3.72;;;2.40;99.90;;;;;;5054958;28;20407;-77
2023/01/18 12:46:21;;;;;;;10.20;4.53;;;2.40;99.90;;;;;;4976314;28;20061;-78
2023/01/18 12:49:00;;;;;;;16.95;3.80;;;5.10;99.90;;;;;;4976884;28;20050;-75
2023/01/18 12:51:34;;;;;;;8.68;3.25;;;2.50;99.90;;;;;;5026537;28;20060;-78
2023/01/18 12:54:11;;;;;;;9.07;3.60;;;3.20;99.90;;;;;;5058195;28;20472;-76
2023/01/18 12:56:42;;;;;;;11.50;3.53;;;3.40;99.90;;;;;;5056047;28;20056;-76
2023/01/18 12:59:25;;;;;;;11.02;3.35;;;2.60;99.90;;;;;;5055898;28;20045;-75
2023/01/18 13:02:38;;;;;;;13.63;4.20;;;2.70;99.90;;;;;;5056554;28;20053;-75
2023/01/18 13:05:34;;;;;;;7.78;3.05;;;2.80;99.90;;;;;;5036683;28;20340;-76
2023/01/18 13:08:05;;;;;;;10.30;3.63;;;2.90;99.90;;;;;;5057429;28;20459;-76
2023/01/18 13:10:34;;;;;;;11.10;3.60;;;3.00;99.90;;;;;;5056679;28;20365;-78
2023/01/18 13:13:04;;;;;;;10.15;3.88;;;3.10;99.90;;;;;;5056200;28;20048;-77
2023/01/18 13:15:41;;;;;;;9.85;3.55;;;3.60;99.90;;;;;;5056473;28;20064;-78
2023/01/18 13:18:24;;;;;;;9.53;3.37;;;3.20;99.90;;;;;;5055762;28;20464;-77
2023/01/18 13:20:54;;;;;;;9.82;3.63;;;3.30;99.90;;;;;;5039732;28;20049;-76
2023/01/18 13:23:51;;;;;;;8.60;3.00;;;3.30;99.90;;;;;;5056139;28;20041;-74
2023/01/18 13:26:24;;;;;;;10.77;3.08;;;3.30;99.90;;;;;;5055314;28;20064;-74
2023/01/18 13:29:21;;;;;;;10.70;3.50;;;4.00;99.90;;;;;;5056423;28;20053;-75
2023/01/18 13:31:49;;;;;;;11.32;3.58;;;3.40;99.90;;;;;;5056049;28;20045;-75
2023/01/18 13:34:54;;;;;;;9.30;3.25;;;3.40;99.90;;;;;;5056978;28;20052;-74
2023/01/18 13:37:46;;;;;;;14.93;3.25;;;3.50;99.90;;;;;;5054979;28;20053;-75
2023/01/18 13:40:33;;;;;;;6.95;2.63;;;3.70;99.90;;;;;;5056198;28;20052;-74
2023/01/18 13:43:01;;;;;;;9.77;2.95;;;3.80;99.90;;;;;;5056024;28;20049;-75
2023/01/18 13:45:29;;;;;;;12.00;2.88;;;3.90;99.90;;;;;;5070892;28;20410;-75
2023/01/18 13:48:24;;;;;;;11.57;2.80;;;3.90;99.90;;;;;;5076144;28;20041;-77
2023/01/18 13:50:53;;;;;;;8.13;2.33;;;3.90;99.90;;;;;;5069470;28;20041;-78